createdAt,value
2023-04-03T00:01:22.563Z,64.64
2023-04-03T00:03:49.825Z,64.66
2023-04-03T00:06:16.919Z,64.68
2023-04-03T00:08:44.011Z,64.76
2023-04-03T00:11:11.615Z,64.78
2023-04-03T00:13:39.884Z,64.86
2023-04-03T00:16:08.924Z,65.00
2023-04-03T00:18:36.747Z,65.10
2023-04-03T00:21:05.042Z,65.08
2023-04-03T00:23:32.216Z,64.79
2023-04-03T00:25:59.336Z,64.99
2023-04-03T00:28:26.602Z,64.93
2023-04-03T00:30:53.953Z,64.97
2023-04-03T00:33:25.649Z,65.31
2023-04-03T00:35:52.971Z,65.20
2023-04-03T00:38:20.196Z,65.08
2023-04-03T00:40:49.417Z,65.24
2023-04-03T00:43:27.525Z,65.19
2023-04-03T00:45:59.165Z,65.27
2023-04-03T00:48:37.811Z,65.36
2023-04-03T00:51:08.742Z,65.32
2023-04-03T00:53:41.969Z,65.59
2023-04-03T00:56:13.861Z,65.56
2023-04-03T00:59:24.202Z,65.63
2023-04-03T01:01:52.056Z,65.77
2023-04-03T01:04:38.131Z,65.72
2023-04-03T01:07:18.210Z,65.83
2023-04-03T01:09:46.862Z,65.84
2023-04-03T01:12:25.990Z,65.69
2023-04-03T01:14:56.844Z,65.99
2023-04-03T01:17:34.328Z,66.00
2023-04-03T01:20:46.862Z,66.00
2023-04-03T01:23:39.110Z,66.02
2023-04-03T01:26:06.500Z,65.65
2023-04-03T01:28:36.307Z,65.94
2023-04-03T01:31:17.218Z,66.03
2023-04-03T01:33:45.320Z,66.04
2023-04-03T01:36:25.309Z,66.28
2023-04-03T01:38:54.402Z,66.35
2023-04-03T01:41:22.347Z,66.16
2023-04-03T01:43:50.945Z,66.38
2023-04-03T01:46:19.608Z,66.44
2023-04-03T01:48:46.900Z,66.21
2023-04-03T01:51:14.286Z,66.48
2023-04-03T01:53:41.497Z,66.40
2023-04-03T01:56:08.715Z,66.72
2023-04-03T01:58:36.115Z,66.69
2023-04-03T02:01:03.599Z,66.51
2023-04-03T02:03:30.913Z,66.28
2023-04-03T02:05:58.295Z,66.54
2023-04-03T02:08:25.595Z,66.52
2023-04-03T02:10:52.970Z,66.66
2023-04-03T02:13:20.819Z,66.89
2023-04-03T02:15:48.815Z,67.10
2023-04-03T02:18:16.651Z,67.04
2023-04-03T02:20:43.846Z,66.81
2023-04-03T02:23:11.259Z,66.99
2023-04-03T02:25:38.934Z,67.06
2023-04-03T02:28:07.015Z,67.32
2023-04-03T02:30:34.584Z,67.13
2023-04-03T02:33:01.951Z,67.43
2023-04-03T02:35:29.108Z,67.44
2023-04-03T02:37:56.873Z,67.21
2023-04-03T02:40:23.938Z,67.49
2023-04-03T02:42:51.190Z,67.26
2023-04-03T02:45:18.378Z,67.33
2023-04-03T02:47:45.540Z,67.61
2023-04-03T02:50:12.723Z,67.70
2023-04-03T02:52:39.849Z,67.68
2023-04-03T02:55:07.893Z,67.53
2023-04-03T02:57:35.040Z,67.64
2023-04-03T03:00:02.515Z,67.90
2023-04-03T03:02:29.651Z,67.72
2023-04-03T03:04:56.857Z,68.11
2023-04-03T03:07:24.074Z,68.16
2023-04-03T03:09:51.790Z,68.02
2023-04-03T03:12:22.809Z,68.23
2023-04-03T03:14:50.654Z,68.11
2023-04-03T03:17:18.175Z,68.38
2023-04-03T03:19:46.859Z,68.38
2023-04-03T03:22:13.983Z,68.41
2023-04-03T03:24:41.304Z,68.31
2023-04-03T03:27:08.372Z,68.33
2023-04-03T03:29:35.493Z,68.68
2023-04-03T03:32:02.609Z,68.72
2023-04-03T03:34:29.700Z,68.55
2023-04-03T03:36:56.869Z,68.65
2023-04-03T03:39:23.985Z,68.78
2023-04-03T03:41:51.640Z,68.56
2023-04-03T03:44:18.782Z,68.75
2023-04-03T05:03:08.333Z,69.40
2023-04-03T05:05:36.915Z,69.71
2023-04-03T05:08:05.017Z,69.62
2023-04-03T05:10:32.757Z,70.11
2023-04-03T05:12:59.938Z,69.96
2023-04-03T05:15:27.332Z,69.88
2023-04-03T05:17:54.559Z,69.97
2023-04-03T05:20:21.775Z,70.13
2023-04-03T05:22:48.866Z,70.03
2023-04-03T05:25:16.172Z,70.19
2023-04-03T05:27:43.319Z,70.01
2023-04-03T05:30:11.233Z,69.94
2023-04-03T05:32:38.398Z,70.25
2023-04-03T05:35:06.974Z,70.21
2023-04-03T05:37:34.679Z,70.26
2023-04-03T05:40:02.255Z,70.47
2023-04-03T05:42:29.496Z,70.30
2023-04-03T05:44:56.787Z,70.39
2023-04-03T05:47:23.975Z,70.48
2023-04-03T05:49:51.669Z,70.42
2023-04-03T05:52:32.638Z,70.42
2023-04-03T05:54:59.776Z,70.54
2023-04-03T05:57:27.009Z,70.74
2023-04-03T05:59:54.301Z,70.56
2023-04-03T06:02:24.124Z,70.86
2023-04-03T06:04:51.828Z,70.71
2023-04-03T06:07:23.885Z,70.80
2023-04-03T06:09:54.254Z,70.59
2023-04-03T06:12:22.162Z,70.66
2023-04-03T06:14:49.781Z,70.73
2023-04-03T06:17:19.124Z,70.74
2023-04-03T06:19:47.064Z,70.81
2023-04-03T06:22:15.033Z,70.70
2023-04-03T06:24:42.807Z,70.78
2023-04-03T06:27:12.494Z,71.02
2023-04-03T06:29:39.690Z,71.05
2023-04-03T06:32:07.308Z,71.08
2023-04-03T06:34:34.759Z,71.13
2023-04-03T06:37:01.826Z,71.01
2023-04-03T06:39:29.094Z,71.15
2023-04-03T06:41:56.483Z,70.92
2023-04-03T06:44:25.089Z,70.90
2023-04-03T06:46:53.006Z,70.80
2023-04-03T06:49:20.126Z,70.93
2023-04-03T06:51:47.229Z,70.91
2023-04-03T06:54:15.905Z,70.95
2023-04-03T06:56:42.989Z,70.98
2023-04-03T06:59:11.832Z,71.07
2023-04-03T07:01:38.930Z,71.23
2023-04-03T07:04:06.799Z,71.14
2023-04-03T07:06:34.786Z,70.87
2023-04-03T07:09:02.346Z,70.82
2023-04-03T07:11:29.589Z,70.83
2023-04-03T07:13:57.753Z,70.99
2023-04-03T07:16:25.150Z,70.87
2023-04-03T07:18:52.297Z,70.85
2023-04-03T07:21:19.667Z,70.80
2023-04-03T07:23:46.855Z,70.58
2023-04-03T07:26:14.024Z,70.57
2023-04-03T07:28:42.534Z,70.30
2023-04-03T07:31:14.676Z,69.98
2023-04-03T07:33:42.732Z,69.71
2023-04-03T07:36:12.513Z,69.66
2023-04-03T07:38:39.903Z,69.20
2023-04-03T07:41:08.201Z,68.92
2023-04-03T07:43:35.954Z,68.75
2023-04-03T07:46:04.101Z,68.32
2023-04-03T07:48:31.369Z,68.12
2023-04-03T07:51:02.791Z,67.67
2023-04-03T07:53:29.874Z,67.52
2023-04-03T07:55:59.284Z,67.07
2023-04-03T07:58:26.865Z,66.61
2023-04-03T08:00:54.226Z,66.48
2023-04-03T08:03:22.327Z,65.93
2023-04-03T08:05:51.008Z,65.42
2023-04-03T08:08:22.485Z,64.91
2023-04-03T08:10:54.260Z,64.64
2023-04-03T08:13:22.039Z,64.83
2023-04-03T08:15:49.594Z,64.76
2023-04-03T08:18:17.790Z,64.09
2023-04-03T08:20:45.319Z,63.34
2023-04-03T08:23:12.775Z,63.04
2023-04-03T08:25:42.279Z,62.51
2023-04-03T08:28:13.213Z,61.75
2023-04-03T08:30:43.513Z,61.65
2023-04-03T08:33:11.537Z,61.37
2023-04-03T08:35:43.034Z,60.75
2023-04-03T08:38:11.262Z,61.10
2023-04-03T08:40:39.223Z,61.19
2023-04-03T08:43:45.977Z,60.81
2023-04-03T08:46:16.595Z,60.32
2023-04-03T08:48:44.685Z,59.84
2023-04-03T08:51:16.970Z,59.20
2023-04-03T08:54:01.416Z,58.86
2023-04-03T08:56:28.839Z,58.90
2023-04-03T08:59:12.253Z,58.32
2023-04-03T09:01:43.044Z,58.40
2023-04-03T09:04:21.052Z,58.20
2023-04-03T09:07:00.128Z,57.86
2023-04-03T09:09:43.490Z,57.24
2023-04-03T09:12:51.264Z,56.82
2023-04-03T09:15:37.633Z,56.89
2023-04-03T09:18:21.364Z,56.74
2023-04-03T09:21:18.955Z,56.58
2023-04-03T09:23:53.930Z,56.10
2023-04-03T09:26:44.847Z,55.71
2023-04-03T09:29:21.892Z,55.70
2023-04-03T09:31:52.231Z,55.59
2023-04-03T09:34:31.810Z,55.05
2023-04-03T09:37:07.345Z,54.90
2023-04-03T09:39:52.022Z,54.78
2023-04-03T09:42:26.521Z,54.31
2023-04-03T09:45:05.600Z,54.52
2023-04-03T09:47:37.690Z,54.43
2023-04-03T09:50:22.499Z,54.13
2023-04-03T09:52:53.085Z,53.95
2023-04-03T09:55:30.566Z,53.80
2023-04-03T09:58:03.269Z,53.30
2023-04-03T10:00:38.683Z,53.19
2023-04-03T10:03:12.175Z,52.94
2023-04-03T10:05:42.668Z,52.74
2023-04-03T10:08:15.242Z,52.44
2023-04-03T10:10:45.830Z,52.32
2023-04-03T10:13:24.902Z,52.07
2023-04-03T10:16:08.893Z,52.01
2023-04-03T10:18:44.673Z,52.07
2023-04-03T10:21:28.629Z,51.81
2023-04-03T10:24:22.145Z,51.36
2023-04-03T10:27:14.865Z,51.06
2023-04-03T10:29:55.160Z,51.32
2023-04-03T10:33:01.419Z,50.83
2023-04-03T10:35:50.091Z,50.81
2023-04-03T10:38:44.889Z,50.65
2023-04-03T10:41:41.774Z,50.60
2023-04-03T10:44:43.018Z,50.44
2023-04-03T10:47:44.674Z,50.07
2023-04-03T10:50:33.165Z,50.31
2023-04-03T10:53:33.802Z,50.00
2023-04-03T10:56:03.651Z,50.11
2023-04-03T10:58:41.803Z,49.75
2023-04-03T11:01:21.882Z,49.84
2023-04-03T11:03:55.133Z,49.80
2023-04-03T11:06:27.963Z,49.67
2023-04-03T11:08:59.938Z,49.56
2023-04-03T11:11:36.456Z,48.98
2023-04-03T11:14:31.515Z,49.08
2023-04-03T11:17:24.655Z,49.14
2023-04-03T11:19:51.667Z,49.23
2023-04-03T11:22:36.033Z,48.86
2023-04-03T11:25:12.661Z,48.86
2023-04-03T11:28:03.315Z,48.47
2023-04-03T11:31:00.505Z,48.34
2023-04-03T11:34:13.982Z,48.22
2023-04-03T11:36:48.248Z,48.35
2023-04-03T11:39:26.234Z,48.30
2023-04-03T11:42:06.735Z,48.07
2023-04-03T11:44:39.544Z,47.69
2023-04-03T11:47:11.491Z,47.55
2023-04-03T11:50:04.755Z,47.25
2023-04-03T11:52:44.134Z,47.39
2023-04-03T11:55:32.616Z,47.03
2023-04-03T11:57:59.585Z,47.02
2023-04-03T12:00:45.428Z,46.91
2023-04-03T12:03:31.081Z,47.06
2023-04-03T12:06:07.404Z,46.99
2023-04-03T12:08:34.409Z,46.99
2023-04-03T12:11:10.732Z,46.78
2023-04-03T12:13:56.258Z,46.39
2023-04-03T12:16:30.625Z,46.50
2023-04-03T12:19:17.273Z,46.54
2023-04-03T12:21:50.014Z,46.38
2023-04-03T12:24:17.238Z,46.60
2023-04-03T12:27:02.924Z,46.46
2023-04-03T12:29:35.653Z,46.36
2023-04-03T12:33:09.769Z,46.06
2023-04-03T12:35:55.657Z,46.16
2023-04-03T12:39:04.451Z,46.08
2023-04-03T12:41:53.550Z,46.26
2023-04-03T12:44:28.479Z,46.09
2023-04-03T12:46:55.785Z,46.10
2023-04-03T12:49:34.687Z,45.59
2023-04-03T12:52:03.056Z,46.02
2023-04-03T12:54:43.644Z,45.64
2023-04-03T12:57:12.982Z,45.78
2023-04-03T12:59:41.353Z,45.62
2023-04-03T13:02:38.655Z,45.44
2023-04-03T13:05:14.495Z,45.55
2023-04-03T13:07:43.264Z,45.28
2023-04-03T13:10:10.243Z,45.22
2023-04-03T13:12:58.957Z,45.50
2023-04-03T13:15:52.597Z,44.99
2023-04-03T13:18:34.889Z,44.84
2023-04-03T13:21:16.673Z,44.92
2023-04-03T13:23:50.168Z,45.09
2023-04-03T13:26:21.948Z,44.91
2023-04-03T13:28:51.161Z,45.18
2023-04-03T13:31:36.087Z,44.79
2023-04-03T13:34:17.512Z,44.98
2023-04-03T13:36:59.424Z,44.96
2023-04-03T13:39:31.463Z,44.92
2023-04-03T13:42:03.928Z,44.91
2023-04-03T13:44:36.430Z,44.83
2023-04-03T13:47:24.128Z,44.58
2023-04-03T13:50:14.650Z,44.34
2023-04-03T13:52:51.664Z,44.39
2023-04-03T13:55:33.544Z,44.55
2023-04-03T13:58:04.840Z,44.68
2023-04-03T14:01:21.376Z,44.66
2023-04-03T14:04:02.093Z,44.79
2023-04-03T14:06:30.230Z,44.81
2023-04-03T14:08:57.375Z,44.53
2023-04-03T14:11:29.783Z,44.25
2023-04-03T14:14:01.672Z,44.13
2023-04-03T14:16:32.688Z,44.21
2023-04-03T14:19:02.620Z,44.34
2023-04-03T14:21:29.888Z,44.38
2023-04-03T14:23:57.708Z,44.04
2023-04-03T14:26:27.694Z,44.52
2023-04-03T14:28:56.828Z,44.21
2023-04-03T14:31:25.263Z,43.79
2023-04-03T14:33:52.663Z,43.88
2023-04-03T14:36:24.788Z,43.73
2023-04-03T14:38:53.128Z,43.75
2023-04-03T14:41:23.744Z,43.74
2023-04-03T14:43:52.081Z,43.86
2023-04-03T14:46:43.115Z,43.49
2023-04-03T14:49:29.252Z,43.44
2023-04-03T14:51:58.506Z,43.40
2023-04-03T14:54:30.254Z,43.68
2023-04-03T14:56:59.234Z,43.83
2023-04-03T14:59:27.073Z,44.04
2023-04-03T15:01:54.256Z,43.46
2023-04-03T15:04:22.512Z,43.28
2023-04-03T15:06:50.897Z,43.22
2023-04-03T15:09:26.056Z,43.45
2023-04-03T15:11:54.997Z,43.63
2023-04-03T15:16:52.680Z,43.80
2023-04-03T15:19:19.796Z,43.61
2023-04-03T15:21:46.894Z,43.73
2023-04-03T15:24:14.054Z,43.89
2023-04-03T15:26:41.176Z,43.90
2023-04-03T15:29:08.472Z,43.80
2023-04-03T15:31:35.738Z,43.92
2023-04-03T15:34:03.779Z,44.01
2023-04-03T15:36:34.566Z,43.62
2023-04-03T15:39:02.394Z,44.00
2023-04-03T15:41:29.521Z,43.82
2023-04-03T15:43:56.700Z,43.72
2023-04-03T15:46:23.886Z,43.93
2023-04-03T15:48:51.225Z,43.68
2023-04-03T15:51:18.338Z,43.85
2023-04-03T15:53:45.640Z,43.44
2023-04-03T15:56:13.069Z,43.76
2023-04-03T15:58:41.378Z,43.77
2023-04-03T16:01:10.984Z,43.82
2023-04-03T16:03:40.217Z,44.09
2023-04-03T16:06:07.327Z,43.83
2023-04-03T16:08:34.530Z,43.82
2023-04-03T16:11:01.840Z,43.96
2023-04-03T16:13:28.969Z,43.98
2023-04-03T16:15:56.799Z,44.00
2023-04-03T16:18:24.031Z,43.84
2023-04-03T16:20:51.871Z,43.80
2023-04-03T16:23:19.807Z,44.31
2023-04-03T16:25:48.024Z,44.24
2023-04-03T16:28:15.767Z,43.89
2023-04-03T16:30:43.179Z,44.25
2023-04-03T16:33:11.686Z,44.17
2023-04-03T16:35:39.177Z,44.11
2023-04-03T16:38:06.739Z,44.18
2023-04-03T16:40:34.987Z,44.18
2023-04-03T16:43:03.082Z,44.50
2023-04-03T16:45:30.172Z,44.49
2023-04-03T16:47:57.381Z,44.38
2023-04-03T16:50:25.092Z,44.59
2023-04-03T16:52:52.181Z,44.71
2023-04-03T16:55:19.562Z,44.46
2023-04-03T16:57:46.680Z,44.48
2023-04-03T17:00:15.868Z,44.43
2023-04-03T17:02:43.029Z,44.48
2023-04-03T17:05:10.205Z,44.57
2023-04-03T17:07:37.382Z,44.56
2023-04-03T17:10:04.834Z,44.72
2023-04-03T17:12:32.100Z,44.74
2023-04-03T17:14:59.262Z,44.89
2023-04-03T17:17:27.259Z,45.14
2023-04-03T17:19:56.045Z,45.11
2023-04-03T17:22:23.613Z,45.06
2023-04-03T17:24:51.169Z,45.11
2023-04-03T17:27:18.481Z,45.10
2023-04-03T17:29:45.675Z,45.05
2023-04-03T17:32:12.791Z,45.21
2023-04-03T17:34:40.353Z,45.41
2023-04-03T17:37:07.927Z,45.46
2023-04-03T17:39:37.136Z,45.40
2023-04-03T17:42:04.377Z,45.61
2023-04-03T17:44:31.528Z,46.00
2023-04-03T17:46:58.695Z,46.00
2023-04-03T17:49:25.842Z,46.42
2023-04-03T17:51:53.946Z,46.75
2023-04-03T17:54:21.488Z,46.87
2023-04-03T17:56:48.730Z,47.20
2023-04-03T17:59:17.103Z,47.32
2023-04-03T18:01:47.702Z,47.47
2023-04-03T18:04:15.378Z,47.90
2023-04-03T18:06:47.026Z,48.02
2023-04-03T18:09:19.076Z,48.09
2023-04-03T18:11:47.226Z,48.03
2023-04-03T18:14:20.820Z,48.08
2023-04-03T18:16:48.096Z,48.35
2023-04-03T18:21:48.010Z,48.60
2023-04-03T18:24:17.687Z,49.15
2023-04-03T18:26:47.752Z,49.32
2023-04-03T18:29:16.342Z,49.34
2023-04-03T18:31:48.869Z,49.17
2023-04-03T18:34:16.006Z,49.59
2023-04-03T18:36:43.149Z,49.68
2023-04-03T18:39:10.371Z,49.71
2023-04-03T18:41:38.283Z,49.82
2023-04-03T18:44:12.246Z,49.99
2023-04-03T18:46:39.828Z,50.07
2023-04-03T18:49:07.052Z,49.95
2023-04-03T18:51:34.236Z,50.21
2023-04-03T18:54:02.212Z,50.24
2023-04-03T18:56:30.504Z,50.31
2023-04-03T18:58:57.598Z,50.50
2023-04-03T19:01:25.276Z,50.61
2023-04-03T19:03:52.534Z,50.78
2023-04-03T19:06:19.889Z,50.83
2023-04-03T19:08:47.434Z,50.66
2023-04-03T19:11:14.504Z,50.68
2023-04-03T19:13:51.794Z,50.87
2023-04-03T19:16:28.688Z,50.93
2023-04-03T19:18:55.835Z,51.02
2023-04-03T19:21:22.858Z,50.86
2023-04-03T19:23:49.905Z,51.21
2023-04-03T19:26:16.901Z,51.17
2023-04-03T19:28:44.323Z,51.22
2023-04-03T19:31:16.473Z,51.14
2023-04-03T19:33:44.194Z,51.48
2023-04-03T19:36:11.720Z,51.74
2023-04-03T19:38:39.115Z,51.72
2023-04-03T19:41:12.247Z,51.96
2023-04-03T19:43:39.806Z,52.04
2023-04-03T19:46:08.529Z,52.13
2023-04-03T19:48:36.428Z,52.16
2023-04-03T19:51:04.856Z,52.24
2023-04-03T19:53:32.361Z,52.49
2023-04-03T19:55:59.485Z,52.25
2023-04-03T19:58:32.975Z,52.38
2023-04-03T20:01:00.192Z,52.44
2023-04-03T20:03:27.368Z,52.68
2023-04-03T20:05:55.572Z,52.80
2023-04-03T20:08:23.213Z,53.10
2023-04-03T20:10:50.913Z,53.21
2023-04-03T20:13:18.076Z,53.46
2023-04-03T20:15:45.854Z,53.65
2023-04-03T20:18:19.382Z,53.61
2023-04-03T20:21:01.896Z,53.87
2023-04-03T20:23:30.229Z,53.64
2023-04-03T20:26:09.222Z,53.94
2023-04-03T20:28:38.751Z,53.71
2023-04-03T20:31:09.361Z,53.74
2023-04-03T20:33:37.388Z,53.79
2023-04-03T20:36:04.630Z,53.68
2023-04-03T20:38:31.792Z,53.99
2023-04-03T20:41:00.396Z,53.74
2023-04-03T20:43:28.604Z,53.85
2023-04-03T20:45:55.836Z,53.80
2023-04-03T20:48:23.938Z,53.98
2023-04-03T20:50:52.143Z,54.12
2023-04-03T20:53:19.715Z,54.03
2023-04-03T20:56:01.189Z,54.07
2023-04-03T20:58:33.484Z,54.27
2023-04-03T21:01:01.299Z,54.16
2023-04-03T21:03:33.233Z,54.45
2023-04-03T21:06:00.611Z,54.33
2023-04-03T21:09:05.627Z,54.54
2023-04-03T21:12:10.233Z,54.86
2023-04-03T21:15:14.867Z,54.66
2023-04-03T21:18:14.677Z,54.69
2023-04-03T21:20:43.721Z,54.97
2023-04-03T21:23:12.060Z,55.20
2023-04-03T21:25:39.167Z,55.52
2023-04-03T21:28:06.174Z,55.57
2023-04-03T21:30:33.228Z,55.69
2023-04-03T21:33:00.378Z,55.99
2023-04-03T21:35:27.423Z,55.79
2023-04-03T21:37:54.832Z,55.91
2023-04-03T21:40:21.843Z,56.20
2023-04-03T21:42:54.457Z,56.11
2023-04-03T21:45:25.429Z,56.00
2023-04-03T21:47:52.972Z,56.33
2023-04-03T21:50:20.171Z,56.26
2023-04-03T21:52:47.362Z,56.48
2023-04-03T21:55:15.574Z,56.49
2023-04-03T21:57:42.772Z,56.52
2023-04-03T22:00:11.139Z,56.62
2023-04-03T22:02:41.658Z,56.45
2023-04-03T22:05:08.762Z,56.79
2023-04-03T22:07:35.955Z,56.59
2023-04-03T22:10:03.063Z,56.63
2023-04-03T22:12:30.230Z,57.08
2023-04-03T22:14:57.352Z,56.81
2023-04-03T22:17:29.070Z,56.97
2023-04-03T22:19:56.447Z,56.96
2023-04-03T22:22:24.988Z,57.05
2023-04-03T22:24:52.503Z,57.14
2023-04-03T22:27:19.631Z,57.10
2023-04-03T22:29:46.735Z,57.07
2023-04-03T22:32:13.986Z,57.35
2023-04-03T22:34:41.375Z,57.41
2023-04-03T22:37:08.557Z,57.42
2023-04-03T22:39:36.116Z,57.35
2023-04-03T22:42:03.243Z,57.51
2023-04-03T22:44:36.104Z,57.82
2023-04-03T22:47:03.775Z,57.83
2023-04-03T22:49:32.239Z,57.70
2023-04-03T22:51:59.651Z,57.74
2023-04-03T22:54:26.724Z,57.89
2023-04-03T22:56:53.805Z,58.01
2023-04-03T22:59:21.253Z,57.83
2023-04-03T23:01:48.824Z,58.06
2023-04-03T23:04:16.598Z,58.12
2023-04-03T23:06:43.832Z,57.92
2023-04-03T23:09:11.285Z,58.28
2023-04-03T23:11:38.375Z,58.32
2023-04-03T23:14:05.692Z,58.22
2023-04-03T23:16:33.016Z,58.33
2023-04-03T23:19:00.870Z,58.70
2023-04-03T23:21:28.158Z,58.56
2023-04-03T23:23:55.771Z,58.79
2023-04-03T23:26:24.055Z,58.70
2023-04-03T23:28:51.538Z,59.18
2023-04-03T23:31:19.064Z,59.20
2023-04-03T23:33:46.665Z,59.00
2023-04-03T23:36:16.017Z,59.32
2023-04-03T23:38:43.492Z,59.41
2023-04-03T23:41:10.566Z,59.44
2023-04-03T23:43:37.730Z,59.51
2023-04-03T23:46:04.826Z,59.61
2023-04-03T23:48:31.918Z,59.34
2023-04-03T23:50:59.000Z,59.39
2023-04-03T23:53:26.038Z,59.60
2023-04-03T23:55:53.271Z,59.87
2023-04-03T23:58:20.899Z,59.80
